Paisley, Oregon
Current Conditions -  °F | °C
As of 8:35 AM on Sunday 25 Jan 2015 (Local Time) from KLKV Reporting Station
Clear Clear  
Wind Chill: 34°   Ceiling: Unl
Heat Index: 34°   Visibility: 10mi
Dew Point: 30°   Wind: 3mph
Humidity: 87%   Direction: 330°NNW
Pressure: 30.4"   Gusts: NA
Location:  42.69°N, 120.55°W
Report Text: KLKV 251635Z 33003KT 10SM CLR 01/M01 A3040 RMK AO1
Loading
Personal Weather Stations






























Interactive Weather Map New forecast layout! Learn more

10-Day Weather Forecast

Advertisements
Track Severe Weather on mobile